Time;durP1;ratioP1;P1;durP2;ratioP2;P2;SDS_P1;SDS_P2;PMS_P1;PMS_P2;Temp;Humidity;BMP_temperature;BMP_pressure;BME280_temperature;BME280_humidity;BME280_pressure;Samples;Min_cycle;Max_cycle;Signal;HPM_P1;HPM_P2
2023/04/01 00:00:53;;;;;;;5.40;0.70;;;;;;;9.07;100.00;99042.66;5061227;28;20067;-79
2023/04/01 00:03:20;;;;;;;3.00;0.63;;;;;;;9.12;100.00;99040.31;5061825;28;20045;-77
2023/04/01 00:05:46;;;;;;;7.00;0.77;;;;;;;9.10;100.00;99037.13;5049360;28;20039;-78
2023/04/01 00:08:12;;;;;;;7.00;1.00;;;;;;;9.11;100.00;99036.13;5069714;28;20417;-78
2023/04/01 00:10:37;;;;;;;5.28;0.70;;;;;;;9.01;100.00;99031.28;5048389;28;20056;-77
2023/04/01 00:13:03;;;;;;;3.67;0.98;;;;;;;9.01;100.00;99033.88;5055933;28;20029;-78
2023/04/01 00:15:29;;;;;;;3.83;0.93;;;;;;;9.01;100.00;99035.66;5065167;28;20398;-79
2023/04/01 00:17:54;;;;;;;4.78;0.80;;;;;;;9.03;100.00;99037.06;5051528;28;20032;-77
2023/04/01 00:20:20;;;;;;;6.60;1.00;;;;;;;9.06;100.00;99038.47;5048355;28;20033;-77
2023/04/01 00:22:45;;;;;;;7.22;0.70;;;;;;;8.93;100.00;99029.66;5045607;28;20119;-77
2023/04/01 00:25:11;;;;;;;3.38;0.80;;;;;;;9.09;100.00;99036.31;5065328;28;20025;-77
2023/04/01 00:27:36;;;;;;;4.22;0.98;;;;;;;8.94;100.00;99035.59;5065628;28;20051;-77
2023/04/01 00:30:03;;;;;;;2.13;0.80;;;;;;;8.95;100.00;99034.63;5054653;28;20041;-77
2023/04/01 00:32:30;;;;;;;4.30;1.00;;;;;;;8.95;100.00;99038.00;5045881;28;20032;-77
2023/04/01 00:34:55;;;;;;;4.47;1.23;;;;;;;8.96;100.00;99039.59;5060531;28;20031;-79
2023/04/01 00:37:21;;;;;;;5.57;2.20;;;;;;;8.89;100.00;99035.38;5048765;28;20032;-77
2023/04/01 00:39:46;;;;;;;2.97;0.60;;;;;;;8.88;100.00;99038.94;5064172;28;20082;-77
2023/04/01 00:42:12;;;;;;;5.05;0.82;;;;;;;8.86;100.00;99040.94;5053073;28;20479;-78
2023/04/01 00:44:38;;;;;;;6.43;1.13;;;;;;;8.96;100.00;99038.81;5046698;28;20031;-78
2023/04/01 00:47:04;;;;;;;5.95;1.73;;;;;;;8.91;100.00;99036.78;5048702;28;20063;-76
2023/04/01 00:49:34;;;;;;;4.38;0.65;;;;;;;8.86;100.00;99035.75;5070192;28;20403;-78
2023/04/01 00:52:01;;;;;;;4.40;0.70;;;;;;;8.83;100.00;99031.75;5062561;28;20037;-78
2023/04/01 00:54:29;;;;;;;6.32;0.82;;;;;;;8.89;100.00;99032.78;5051388;28;20021;-78
2023/04/01 00:57:09;;;;;;;3.45;0.63;;;;;;;8.92;100.00;99035.00;5060478;28;20036;-77
2023/04/01 00:59:52;;;;;;;6.65;1.23;;;;;;;8.93;100.00;99036.63;5066379;28;20028;-78
2023/04/01 01:02:18;;;;;;;1.85;0.60;;;;;;;8.91;100.00;99031.63;5064630;28;20127;-78
2023/04/01 01:04:44;;;;;;;6.72;0.70;;;;;;;8.85;100.00;99013.47;5048230;28;20029;-78
2023/04/01 01:07:28;;;;;;;3.38;0.85;;;;;;;8.82;100.00;99030.16;5050476;28;20033;-78
2023/04/01 01:10:29;;;;;;;3.80;0.60;;;;;;;8.86;100.00;99028.78;5048635;28;20036;-77
2023/04/01 01:13:09;;;;;;;5.90;0.70;;;;;;;8.81;100.00;99030.34;5075336;28;20084;-78
2023/04/01 01:15:52;;;;;;;3.47;1.00;;;;;;;8.82;100.00;99013.88;5059490;28;20029;-76
2023/04/01 01:18:27;;;;;;;3.80;0.63;;;;;;;8.86;100.00;99015.88;5066747;28;20533;-76
2023/04/01 01:21:11;;;;;;;2.53;0.60;;;;;;;8.75;100.00;99016.38;5064082;28;20159;-79
2023/04/01 01:24:03;;;;;;;2.85;0.93;;;;;;;8.76;100.00;99023.97;5083943;28;20036;-78
2023/04/01 01:27:07;;;;;;;4.72;0.60;;;;;;;8.85;100.00;99018.63;5064209;28;20087;-76
2023/04/01 01:30:10;;;;;;;3.00;0.70;;;;;;;8.90;100.00;99014.50;5063318;28;20028;-77
2023/04/01 01:33:09;;;;;;;6.65;2.28;;;;;;;8.84;100.00;99015.25;5066710;28;20542;-78
2023/04/01 01:35:35;;;;;;;3.83;0.77;;;;;;;8.81;100.00;99015.63;5064217;28;20035;-78
2023/04/01 01:38:08;;;;;;;3.72;0.90;;;;;;;8.80;100.00;99013.22;5047839;28;20120;-78
2023/04/01 01:40:36;;;;;;;3.47;0.60;;;;;;;8.76;100.00;99011.03;5047685;28;20062;-78
2023/04/01 01:43:09;;;;;;;5.95;0.85;;;;;;;8.76;100.00;99013.63;5068334;28;20064;-77
2023/04/01 01:45:40;;;;;;;4.63;0.95;;;;;;;8.79;100.00;99019.41;5047890;27;20038;-77
2023/04/01 01:48:08;;;;;;;3.13;0.50;;;;;;;8.83;100.00;99018.81;5062936;28;20056;-80
2023/04/01 01:50:35;;;;;;;3.65;0.82;;;;;;;8.76;100.00;99013.63;5062790;28;20035;-78
2023/04/01 01:53:12;;;;;;;2.58;0.82;;;;;;;8.80;100.00;99019.22;5059078;28;20049;-78
2023/04/01 01:55:44;;;;;;;3.53;0.68;;;;;;;8.74;100.00;99014.81;5062296;28;20037;-77
2023/04/01 01:58:26;;;;;;;2.47;0.80;;;;;;;8.81;100.00;99009.66;5067820;28;20498;-80
2023/04/01 02:01:00;;;;;;;3.72;0.88;;;;;;;8.77;100.00;99010.03;5062780;28;20933;-77
2023/04/01 02:03:31;;;;;;;5.13;0.68;;;;;;;8.77;100.00;99020.38;5058966;28;20032;-79
2023/04/01 02:05:59;;;;;;;2.85;0.43;;;;;;;8.71;100.00;99021.13;5067378;28;20036;-77
2023/04/01 02:08:34;;;;;;;3.55;0.80;;;;;;;8.71;100.00;99028.09;5069099;28;20041;-78
2023/04/01 02:11:11;;;;;;;4.40;0.73;;;;;;;8.74;100.00;99020.75;5049321;28;20537;-78
2023/04/01 02:13:46;;;;;;;5.90;0.85;;;;;;;8.72;100.00;99027.09;5076694;28;20171;-77
2023/04/01 02:16:18;;;;;;;2.60;0.75;;;;;;;8.61;100.00;99023.25;5063648;28;20151;-78
2023/04/01 02:18:48;;;;;;;5.60;0.80;;;;;;;8.75;100.00;99027.50;5047480;28;20063;-77
2023/04/01 02:21:15;;;;;;;4.88;0.70;;;;;;;8.66;100.00;99031.22;5064939;28;20032;-79
2023/04/01 02:23:40;;;;;;;2.15;0.43;;;;;;;8.67;100.00;99025.06;5044414;28;20024;-82
2023/04/01 02:26:09;;;;;;;4.45;0.88;;;;;;;8.71;100.00;99020.34;5064403;28;20036;-77
2023/04/01 02:28:38;;;;;;;2.75;0.90;;;;;;;8.58;100.00;99026.97;5066910;28;20043;-78
2023/04/01 02:31:04;;;;;;;2.40;0.95;;;;;;;8.63;100.00;99031.59;5062384;28;20032;-77
2023/04/01 02:33:30;;;;;;;5.93;0.70;;;;;;;8.59;100.00;99035.56;5047573;28;20501;-78
2023/04/01 02:35:57;;;;;;;2.03;1.17;;;;;;;8.56;100.00;99033.31;5050035;28;20036;-77
2023/04/01 02:38:23;;;;;;;2.95;0.70;;;;;;;8.65;100.00;99034.78;5070891;28;20029;-78
2023/04/01 02:40:58;;;;;;;4.93;0.88;;;;;;;8.65;100.00;99046.94;5060025;28;20417;-77
2023/04/01 02:43:24;;;;;;;1.98;0.63;;;;;;;8.61;100.00;99040.50;5065049;28;20028;-78
2023/04/01 02:45:50;;;;;;;3.78;0.80;;;;;;;8.60;100.00;99046.69;5061077;28;20051;-78
2023/04/01 02:48:15;;;;;;;2.17;0.70;;;;;;;8.53;100.00;99049.19;5065048;28;20032;-77
2023/04/01 02:50:41;;;;;;;4.05;0.50;;;;;;;8.64;100.00;99045.31;5057762;28;20141;-79
2023/04/01 02:53:06;;;;;;;2.88;0.70;;;;;;;8.58;100.00;99052.03;5066564;28;20040;-78
2023/04/01 02:55:33;;;;;;;2.13;0.57;;;;;;;8.64;100.00;99055.66;5048737;28;20047;-79
2023/04/01 02:57:59;;;;;;;2.03;0.68;;;;;;;8.60;100.00;99062.97;5045180;28;20021;-77
2023/04/01 03:00:25;;;;;;;2.90;0.90;;;;;;;8.63;100.00;99059.22;5043797;28;20037;-77
2023/04/01 03:02:50;;;;;;;1.02;0.68;;;;;;;8.64;100.00;99064.19;5043109;28;20032;-79
2023/04/01 03:05:16;;;;;;;0.93;0.40;;;;;;;8.57;100.00;99061.56;5045398;28;20486;-80
2023/04/01 03:07:41;;;;;;;2.00;0.65;;;;;;;8.59;100.00;99058.81;5060899;28;20047;-78
2023/04/01 03:10:07;;;;;;;1.23;0.88;;;;;;;8.64;100.00;99065.97;5065342;28;20024;-78
2023/04/01 03:12:33;;;;;;;1.30;0.68;;;;;;;8.54;100.00;99063.72;5060213;28;20039;-77
2023/04/01 03:14:58;;;;;;;4.63;0.90;;;;;;;8.53;100.00;99067.28;5049725;28;20028;-78
2023/04/01 03:17:24;;;;;;;3.97;0.55;;;;;;;8.57;100.00;99074.47;5059281;28;20040;-76
2023/04/01 03:19:49;;;;;;;2.55;0.68;;;;;;;8.59;100.00;99074.31;5046514;28;20040;-79
2023/04/01 03:22:15;;;;;;;2.40;0.90;;;;;;;8.69;100.00;99076.56;5042945;28;20051;-79
2023/04/01 03:24:42;;;;;;;1.50;0.50;;;;;;;8.60;100.00;99072.50;5058455;28;20029;-78
2023/04/01 03:27:07;;;;;;;1.85;0.60;;;;;;;8.66;100.00;99080.31;5044703;28;20040;-78
2023/04/01 03:29:33;;;;;;;4.68;0.85;;;;;;;8.58;100.00;99075.28;5044858;28;20024;-78
2023/04/01 03:31:59;;;;;;;1.48;0.70;;;;;;;8.56;100.00;99069.50;5047621;28;20078;-81
2023/04/01 03:34:25;;;;;;;2.40;0.90;;;;;;;8.56;100.00;99072.88;5064790;28;20024;-78
2023/04/01 03:36:52;;;;;;;2.63;1.23;;;;;;;8.63;100.00;99069.56;5045062;28;20028;-78
2023/04/01 03:39:20;;;;;;;2.03;0.80;;;;;;;8.60;100.00;99080.25;5046919;28;20030;-78
2023/04/01 03:41:46;;;;;;;1.83;0.70;;;;;;;8.61;100.00;99080.09;5061133;28;20032;-79
2023/04/01 03:44:12;;;;;;;2.92;0.80;;;;;;;8.67;100.00;99073.38;5059519;28;20021;-79
2023/04/01 03:46:39;;;;;;;1.42;0.70;;;;;;;8.66;100.00;99085.47;5046361;28;20399;-80
2023/04/01 03:49:11;;;;;;;2.15;0.75;;;;;;;8.67;100.00;99075.97;5064387;28;20036;-78
2023/04/01 03:51:41;;;;;;;2.65;0.63;;;;;;;8.68;100.00;99074.97;5051582;28;20039;-78
2023/04/01 03:54:07;;;;;;;4.85;1.13;;;;;;;8.64;100.00;99079.69;5045394;28;20033;-78
2023/04/01 03:56:33;;;;;;;2.70;1.02;;;;;;;8.66;100.00;99074.34;5064878;28;20037;-78
2023/04/01 03:59:02;;;;;;;2.60;0.77;;;;;;;8.65;100.00;99078.72;5046709;28;20056;-78
2023/04/01 04:01:27;;;;;;;3.50;0.90;;;;;;;8.63;100.00;99082.50;5064198;28;20028;-79
2023/04/01 04:03:56;;;;;;;2.03;0.80;;;;;;;8.63;100.00;99087.66;5043823;28;20392;-78
2023/04/01 04:06:22;;;;;;;1.27;0.90;;;;;;;8.67;100.00;99088.88;5061778;28;20123;-78
2023/04/01 04:08:48;;;;;;;1.98;1.00;;;;;;;8.63;100.00;99090.25;5048536;28;20035;-77
2023/04/01 04:11:14;;;;;;;4.50;0.93;;;;;;;8.74;100.00;99094.91;5043300;28;20036;-81
2023/04/01 04:13:42;;;;;;;2.35;0.93;;;;;;;8.61;100.00;99084.44;5060781;28;20044;-78
2023/04/01 04:16:09;;;;;;;4.07;1.10;;;;;;;8.52;100.00;99094.09;5062195;28;20071;-78
2023/04/01 04:18:38;;;;;;;1.70;0.93;;;;;;;8.57;100.00;99091.78;5064663;28;20394;-76
2023/04/01 04:21:04;;;;;;;1.98;1.08;;;;;;;8.68;100.00;99100.81;5059533;28;20033;-79
2023/04/01 04:23:33;;;;;;;1.85;1.00;;;;;;;8.63;100.00;99100.56;5077260;28;20965;-77
2023/04/01 04:25:58;;;;;;;3.63;1.17;;;;;;;8.58;100.00;99096.72;5063366;28;20123;-77
2023/04/01 04:28:26;;;;;;;2.40;0.90;;;;;;;8.60;100.00;99099.13;5067108;28;20024;-79
2023/04/01 04:30:53;;;;;;;4.38;1.20;;;;;;;8.62;100.00;99093.78;5044638;28;20498;-80
2023/04/01 04:33:19;;;;;;;1.30;0.90;;;;;;;8.57;100.00;99105.50;5063508;28;20050;-77
2023/04/01 04:35:45;;;;;;;4.20;1.33;;;;;;;8.51;100.00;99113.16;5046453;28;20426;-77
2023/04/01 04:38:11;;;;;;;1.92;1.48;;;;;;;8.66;100.00;99107.94;5044744;28;20025;-82
2023/04/01 04:40:37;;;;;;;4.18;1.98;;;;;;;8.68;100.00;99109.38;5048870;28;20399;-77
2023/04/01 04:43:03;;;;;;;2.88;1.25;;;;;;;8.60;100.00;99103.50;5048359;28;20052;-78
2023/04/01 04:45:29;;;;;;;3.67;1.30;;;;;;;8.60;100.00;99104.31;5055150;28;20028;-77
2023/04/01 04:47:56;;;;;;;2.03;1.10;;;;;;;8.57;100.00;99112.44;5047268;28;20059;-77
2023/04/01 04:50:21;;;;;;;3.92;1.30;;;;;;;8.59;100.00;99113.06;5050251;28;20510;-78
2023/04/01 04:52:47;;;;;;;2.88;1.50;;;;;;;8.61;100.00;99120.59;5063800;28;20029;-78
2023/04/01 04:55:13;;;;;;;1.73;1.05;;;;;;;8.64;100.00;99115.88;5062030;28;20036;-77
2023/04/01 04:57:41;;;;;;;2.03;1.15;;;;;;;8.62;100.00;99117.06;5051045;28;20054;-78
2023/04/01 05:00:08;;;;;;;2.65;1.20;;;;;;;8.62;100.00;99119.63;5068408;28;20032;-78
2023/04/01 05:02:45;;;;;;;1.40;1.23;;;;;;;8.65;100.00;99121.84;5065197;28;20045;-76
2023/04/01 05:05:10;;;;;;;1.58;1.10;;;;;;;8.63;100.00;99124.63;5050541;28;20051;-79
2023/04/01 05:07:36;;;;;;;1.50;1.10;;;;;;;8.58;100.00;99124.38;5065574;28;20036;-77
2023/04/01 05:10:02;;;;;;;1.30;1.20;;;;;;;8.62;100.00;99127.38;5064700;28;20558;-78
2023/04/01 05:12:27;;;;;;;4.65;1.55;;;;;;;8.55;100.00;99128.13;5048491;28;20859;-77
2023/04/01 05:15:02;;;;;;;3.80;1.65;;;;;;;8.59;100.00;99123.41;5051023;28;20032;-77
2023/04/01 05:17:28;;;;;;;4.32;1.80;;;;;;;8.65;100.00;99130.41;5058799;28;20036;-77
2023/04/01 05:19:54;;;;;;;2.55;1.52;;;;;;;8.65;100.00;99122.66;5044658;28;20191;-78
2023/04/01 05:22:19;;;;;;;4.28;1.80;;;;;;;8.61;100.00;99130.94;5048471;28;20025;-77
2023/04/01 05:24:45;;;;;;;2.97;1.88;;;;;;;8.52;100.00;99140.59;5049142;28;20518;-77
2023/04/01 05:27:11;;;;;;;2.17;1.58;;;;;;;8.48;100.00;99136.78;5062066;28;20040;-77
2023/04/01 05:29:39;;;;;;;4.53;1.90;;;;;;;8.52;100.00;99141.41;5054134;28;20536;-81
2023/04/01 05:32:07;;;;;;;4.68;2.00;;;;;;;8.47;100.00;99146.31;5048749;28;20036;-78
2023/04/01 05:34:33;;;;;;;3.05;1.65;;;;;;;8.49;100.00;99140.97;5049164;28;20024;-77
2023/04/01 05:36:59;;;;;;;4.13;2.00;;;;;;;8.45;100.00;99142.31;5065072;28;20032;-78
2023/04/01 05:39:24;;;;;;;3.72;1.80;;;;;;;8.49;100.00;99151.28;5052104;28;20111;-78
2023/04/01 05:41:50;;;;;;;2.40;2.00;;;;;;;8.47;100.00;99153.25;5046419;28;20033;-77
2023/04/01 05:44:15;;;;;;;3.13;1.98;;;;;;;8.47;100.00;99153.25;5070260;28;20028;-77
2023/04/01 05:46:41;;;;;;;3.25;2.30;;;;;;;8.49;100.00;99153.88;5059887;28;20036;-76
2023/04/01 05:49:36;;;;;;;3.53;2.47;;;;;;;8.47;100.00;99158.44;5056013;28;21859;-77
2023/04/01 05:52:03;;;;;;;3.25;2.42;;;;;;;8.43;100.00;99158.00;5049938;28;20419;-77
2023/04/01 05:54:30;;;;;;;4.50;2.78;;;;;;;8.43;100.00;99160.56;5061509;28;20550;-77
2023/04/01 05:56:55;;;;;;;5.25;2.78;;;;;;;8.47;100.00;99161.00;5064459;28;20028;-80
2023/04/01 05:59:21;;;;;;;5.80;3.20;;;;;;;8.54;100.00;99167.84;5062782;28;20024;-78
2023/04/01 06:01:46;;;;;;;6.88;3.03;;;;;;;8.53;100.00;99168.03;5080500;28;20029;-77
2023/04/01 06:04:17;;;;;;;5.05;3.20;;;;;;;8.51;100.00;99175.97;5063761;28;20051;-77
2023/04/01 06:06:44;;;;;;;5.03;3.38;;;;;;;8.56;100.00;99171.03;5049215;28;20039;-81
2023/04/01 06:09:29;;;;;;;5.00;3.60;;;;;;;8.54;100.00;99169.63;5064242;28;20024;-77
2023/04/01 06:12:07;;;;;;;7.95;3.38;;;;;;;8.49;100.00;99170.16;5044652;28;20028;-77
2023/04/01 06:14:41;;;;;;;5.93;3.20;;;;;;;8.54;100.00;99167.06;5063774;28;20049;-78
2023/04/01 06:17:34;;;;;;;5.05;3.35;;;;;;;8.48;100.00;99178.91;5044467;28;20455;-77
2023/04/01 06:20:35;;;;;;;3.28;2.28;;;;;;;8.52;100.00;99180.16;5067027;28;20391;-76
2023/04/01 06:23:26;;;;;;;4.75;2.30;;;;;;;8.51;100.00;99180.31;5044839;28;20273;-77
2023/04/01 06:26:10;;;;;;;4.80;2.10;;;;;;;8.48;100.00;99181.50;5056036;28;20029;-77
2023/04/01 06:28:37;;;;;;;2.35;1.70;;;;;;;8.51;100.00;99188.06;5065369;28;20614;-80
2023/04/01 06:31:49;;;;;;;2.45;1.55;;;;;;;8.50;100.00;99187.28;5077581;28;20119;-77
2023/04/01 06:34:32;;;;;;;3.22;1.73;;;;;;;8.46;100.00;99193.00;5055930;28;20487;-79
2023/04/01 06:37:22;;;;;;;3.92;1.90;;;;;;;8.52;100.00;99194.84;5043055;28;20048;-75
2023/04/01 06:40:03;;;;;;;2.30;1.67;;;;;;;8.56;100.00;99188.34;5048019;28;20501;-77
2023/04/01 06:42:41;;;;;;;2.80;1.63;;;;;;;8.63;100.00;99196.19;5062479;28;20100;-81
2023/04/01 06:45:46;;;;;;;3.17;1.80;;;;;;;8.60;100.00;99197.31;5056862;28;20366;-76
2023/04/01 06:48:38;;;;;;;2.28;1.52;;;;;;;8.56;100.00;99204.63;5024951;28;20086;-78
2023/04/01 06:52:02;;;;;;;2.47;1.73;;;;;;;8.57;100.00;99200.28;5060754;28;20086;-78
2023/04/01 06:55:27;;;;;;;3.20;1.60;;;;;;;8.65;100.00;99205.34;5004002;28;20030;-77
2023/04/01 06:58:35;;;;;;;1.90;1.70;;;;;;;8.75;100.00;99208.41;4975324;28;20128;-77
2023/04/01 07:01:06;;;;;;;1.90;1.70;;;;;;;8.80;100.00;99212.22;5034636;28;20031;-78
2023/04/01 07:03:52;;;;;;;1.50;1.35;;;;;;;8.71;100.00;99214.16;5060750;28;20032;-80
2023/04/01 07:06:43;;;;;;;3.25;1.85;;;;;;;8.74;100.00;99216.38;5063538;28;20494;-77
2023/04/01 07:09:16;;;;;;;3.63;2.60;;;;;;;8.68;100.00;99222.25;5062940;28;20035;-81
2023/04/01 07:12:22;;;;;;;3.13;2.55;;;;;;;8.68;100.00;99220.50;5055868;28;20098;-77
2023/04/01 07:15:26;;;;;;;4.45;2.60;;;;;;;8.66;100.00;99217.25;5029471;28;20106;-79
2023/04/01 07:18:11;;;;;;;10.77;6.18;;;;;;;8.69;100.00;99227.25;5061520;28;20032;-78
2023/04/01 07:20:38;;;;;;;7.90;5.10;;;;;;;8.62;100.00;99231.53;5043037;28;20048;-79
2023/04/01 07:23:31;;;;;;;15.15;8.18;;;;;;;8.60;100.00;99227.53;5047325;28;20033;-77
2023/04/01 07:26:22;;;;;;;15.55;7.63;;;;;;;8.75;100.00;99236.06;5060288;28;20036;-78
2023/04/01 07:28:53;;;;;;;30.98;14.65;;;;;;;8.72;100.00;99244.97;5061620;28;20048;-77
2023/04/01 07:31:49;;;;;;;7.75;5.25;;;;;;;8.85;100.00;99246.09;5045638;28;20037;-77
2023/04/01 07:34:25;;;;;;;6.75;5.03;;;;;;;8.87;100.00;99257.88;5062207;28;20040;-77
2023/04/01 07:37:06;;;;;;;6.53;5.05;;;;;;;8.82;100.00;99254.22;5063986;28;20093;-78
2023/04/01 07:40:03;;;;;;;7.22;5.50;;;;;;;8.80;100.00;99258.75;5044295;28;20035;-79
2023/04/01 07:43:02;;;;;;;4.55;3.85;;;;;;;8.76;100.00;99259.13;5050134;28;20071;-79
2023/04/01 07:45:41;;;;;;;6.22;4.15;;;;;;;8.89;100.00;99268.84;5037423;28;20597;-77
2023/04/01 07:48:16;;;;;;;5.90;4.18;;;;;;;8.94;100.00;99265.69;5062447;28;20039;-82
2023/04/01 07:50:53;;;;;;;5.78;3.95;;;;;;;8.95;100.00;99268.09;5061164;28;20033;-77
2023/04/01 07:53:31;;;;;;;7.20;4.10;;;;;;;8.99;100.00;99272.91;5049546;28;20078;-78
2023/04/01 07:56:20;;;;;;;6.07;4.50;;;;;;;8.88;100.00;99279.34;5063144;28;20044;-77
2023/04/01 07:59:00;;;;;;;8.07;5.47;;;;;;;8.97;100.00;99283.44;5048920;28;20731;-77
2023/04/01 08:02:06;;;;;;;7.22;4.78;;;;;;;8.90;100.00;99282.56;5058244;28;20055;-77
2023/04/01 08:04:43;;;;;;;5.03;4.30;;;;;;;8.89;100.00;99280.94;5047692;28;20383;-78
2023/04/01 08:07:20;;;;;;;5.95;4.93;;;;;;;8.87;100.00;99294.06;5045658;28;20049;-79
2023/04/01 08:10:42;;;;;;;7.53;4.50;;;;;;;8.93;100.00;99301.09;5041847;28;20093;-81
2023/04/01 08:13:34;;;;;;;6.90;5.40;;;;;;;8.90;100.00;99303.22;5036229;28;20055;-79
2023/04/01 08:16:33;;;;;;;12.45;7.55;;;;;;;8.98;100.00;99310.06;5061147;28;20051;-76
2023/04/01 08:19:22;;;;;;;11.65;7.95;;;;;;;8.92;100.00;99303.84;5063899;28;20025;-77
2023/04/01 08:21:58;;;;;;;11.85;6.53;;;;;;;8.94;100.00;99318.19;5051355;28;20039;-78
2023/04/01 08:24:42;;;;;;;6.80;5.00;;;;;;;8.94;100.00;99318.19;5085347;28;20033;-79
2023/04/01 08:27:28;;;;;;;4.93;4.10;;;;;;;8.87;100.00;99332.84;5064111;28;20033;-78
2023/04/01 08:30:01;;;;;;;5.05;4.32;;;;;;;8.87;100.00;99330.25;5048572;28;20036;-77
2023/04/01 08:32:41;;;;;;;5.03;4.35;;;;;;;9.06;100.00;99330.66;5062756;28;20504;-78
2023/04/01 08:35:20;;;;;;;6.72;4.85;;;;;;;8.99;100.00;99328.00;5063822;28;20021;-78
2023/04/01 08:37:48;;;;;;;8.35;4.63;;;;;;;8.87;100.00;99334.59;5047846;28;20036;-77
2023/04/01 08:40:40;;;;;;;6.28;4.88;;;;;;;8.96;100.00;99341.28;5055263;28;20143;-77
2023/04/01 08:43:46;;;;;;;6.65;5.57;;;;;;;9.03;100.00;99339.56;5060568;28;20069;-78
2023/04/01 08:46:24;;;;;;;6.22;5.00;;;;;;;9.11;100.00;99347.22;5060153;28;20044;-78
2023/04/01 08:49:09;;;;;;;7.68;6.00;;;;;;;9.16;100.00;99344.09;5066762;28;20398;-77
2023/04/01 08:52:07;;;;;;;7.00;5.03;;;;;;;9.17;100.00;99348.28;5050891;28;20033;-78
2023/04/01 08:54:46;;;;;;;8.73;5.28;;;;;;;9.16;100.00;99337.13;5063377;28;20029;-78
2023/04/01 08:57:45;;;;;;;6.75;5.07;;;;;;;9.05;100.00;99347.94;5060309;28;20043;-77
2023/04/01 09:00:47;;;;;;;6.65;5.32;;;;;;;9.12;100.00;99350.63;5062856;28;20133;-77
2023/04/01 09:03:41;;;;;;;7.03;5.50;;;;;;;9.23;100.00;99365.69;5064300;28;20029;-78
2023/04/01 09:06:34;;;;;;;8.68;5.40;;;;;;;9.19;100.00;99366.19;5048341;28;20586;-78
2023/04/01 09:09:32;;;;;;;10.80;6.68;;;;;;;9.16;100.00;99375.13;5056202;28;20115;-77
2023/04/01 09:12:50;;;;;;;9.93;6.72;;;;;;;9.18;100.00;99378.34;5049994;28;20044;-77
2023/04/01 09:15:40;;;;;;;10.07;6.85;;;;;;;9.08;100.00;99376.03;5028931;28;20083;-77
2023/04/01 09:18:16;;;;;;;10.48;6.95;;;;;;;9.10;100.00;99379.25;5063332;28;20063;-78
2023/04/01 09:21:00;;;;;;;12.02;7.35;;;;;;;9.14;100.00;99384.88;5045992;28;20032;-78
2023/04/01 09:23:46;;;;;;;14.25;7.53;;;;;;;9.26;100.00;99378.22;5052013;28;20059;-82
2023/04/01 09:26:33;;;;;;;41.17;17.05;;;;;;;9.33;100.00;99386.88;5044626;28;20056;-77
2023/04/01 09:29:14;;;;;;;81.85;30.55;;;;;;;9.29;100.00;99377.88;5055471;28;20063;-78
2023/04/01 09:32:05;;;;;;;78.82;28.95;;;;;;;9.20;100.00;99393.69;5065997;28;20049;-79
2023/04/01 09:34:51;;;;;;;38.35;19.38;;;;;;;9.30;100.00;99394.97;5078388;28;20106;-78
2023/04/01 09:37:33;;;;;;;49.00;23.67;;;;;;;9.32;100.00;99382.69;5047112;28;20456;-78
2023/04/01 09:40:41;;;;;;;61.70;30.73;;;;;;;9.36;100.00;99393.44;5053003;28;20039;-78
2023/04/01 09:44:13;;;;;;;50.83;26.65;;;;;;;9.45;100.00;99397.53;5061233;28;20040;-77
2023/04/01 09:47:10;;;;;;;27.55;15.70;;;;;;;9.42;100.00;99405.69;4986573;28;20038;-78
2023/04/01 09:50:13;;;;;;;21.30;12.25;;;;;;;9.47;100.00;99407.72;4988044;28;20449;-78
2023/04/01 09:52:57;;;;;;;21.65;14.13;;;;;;;9.42;100.00;99410.84;5045050;28;20668;-77
2023/04/01 09:56:04;;;;;;;29.75;18.42;;;;;;;9.50;100.00;99408.16;5061609;28;20120;-76
2023/04/01 09:59:03;;;;;;;22.88;13.77;;;;;;;9.41;100.00;99411.81;5045821;28;20067;-80
2023/04/01 10:01:49;;;;;;;40.72;23.15;;;;;;;9.59;100.00;99421.78;5064647;27;20025;-80
2023/04/01 10:04:57;;;;;;;20.10;12.13;;;;;;;9.57;100.00;99420.34;5050766;28;20028;-78
2023/04/01 10:07:50;;;;;;;36.78;19.52;;;;;;;9.42;100.00;99426.38;5065837;28;20044;-77
2023/04/01 10:10:16;;;;;;;20.77;11.98;;;;;;;9.45;100.00;99423.41;5056869;28;20068;-79
2023/04/01 10:13:06;;;;;;;18.40;11.23;;;;;;;9.55;100.00;99434.28;5047942;28;20033;-80
2023/04/01 10:15:57;;;;;;;11.88;8.05;;;;;;;9.49;100.00;99434.19;5068488;28;20521;-76
2023/04/01 10:18:35;;;;;;;11.32;7.63;;;;;;;9.45;100.00;99433.75;5053373;28;20490;-79
2023/04/01 10:21:17;;;;;;;8.45;6.90;;;;;;;9.63;100.00;99440.34;5045734;28;20131;-79
2023/04/01 10:23:58;;;;;;;8.88;6.70;;;;;;;9.78;100.00;99428.16;5045588;28;20028;-77
2023/04/01 10:27:02;;;;;;;9.23;6.78;;;;;;;9.76;100.00;99435.31;5054531;28;20055;-82
2023/04/01 10:30:23;;;;;;;15.00;7.20;;;;;;;9.76;100.00;99443.06;5023383;28;20480;-77
2023/04/01 10:33:23;;;;;;;12.43;8.32;;;;;;;9.68;100.00;99448.34;5003347;28;20143;-77
2023/04/01 10:36:17;;;;;;;13.60;9.32;;;;;;;9.56;100.00;99450.59;5029872;28;20037;-77
2023/04/01 10:39:01;;;;;;;13.93;9.32;;;;;;;9.62;100.00;99454.25;5077085;28;20036;-78
2023/04/01 10:41:59;;;;;;;11.32;8.32;;;;;;;9.64;100.00;99450.50;5064153;28;20408;-77
2023/04/01 10:44:45;;;;;;;16.48;10.68;;;;;;;9.59;100.00;99457.19;5063021;28;20040;-78
2023/04/01 10:47:37;;;;;;;14.15;10.07;;;;;;;9.59;100.00;99457.19;5063136;28;20016;-77
2023/04/01 10:50:44;;;;;;;17.63;9.77;;;;;;;9.62;100.00;99459.44;5061360;28;20109;-76
2023/04/01 10:54:07;;;;;;;15.15;9.00;;;;;;;9.60;100.00;99466.56;5049541;28;20044;-78
2023/04/01 10:57:10;;;;;;;11.50;8.13;;;;;;;9.66;100.00;99471.84;4963894;28;20035;-77
2023/04/01 11:00:30;;;;;;;15.18;9.00;;;;;;;9.61;100.00;99470.78;4983762;28;20140;-78
2023/04/01 11:03:46;;;;;;;11.48;7.70;;;;;;;9.55;100.00;99474.91;5059126;28;20105;-77
2023/04/01 11:06:39;;;;;;;11.63;8.38;;;;;;;9.55;100.00;99482.66;5043838;28;20103;-76
2023/04/01 11:09:34;;;;;;;12.70;8.90;;;;;;;9.49;100.00;99488.53;5059028;28;20127;-77
2023/04/01 11:12:21;;;;;;;12.98;8.60;;;;;;;9.62;100.00;99488.69;5033794;28;20499;-76
2023/04/01 11:15:09;;;;;;;9.23;6.93;;;;;;;9.54;100.00;99486.22;5076278;28;21198;-80
2023/04/01 11:18:12;;;;;;;8.82;6.85;;;;;;;9.60;100.00;99497.63;5062700;28;20139;-78
2023/04/01 11:21:16;;;;;;;7.95;5.95;;;;;;;9.62;100.00;99493.06;5062528;28;20036;-79
2023/04/01 11:24:13;;;;;;;7.30;5.82;;;;;;;9.62;100.00;99488.69;5042050;28;20090;-76
2023/04/01 11:26:59;;;;;;;9.15;6.95;;;;;;;9.58;100.00;99499.59;5046764;28;20037;-76
2023/04/01 11:29:55;;;;;;;11.35;7.35;;;;;;;9.54;100.00;99502.53;5054604;28;20409;-78
2023/04/01 11:32:32;;;;;;;9.20;7.50;;;;;;;9.50;100.00;99509.06;5045721;28;20029;-78
2023/04/01 11:35:25;;;;;;;9.93;7.93;;;;;;;9.55;100.00;99501.56;5043595;28;20106;-77
2023/04/01 11:38:09;;;;;;;;;;;;;;;9.54;100.00;99514.69;5044031;28;20398;-77
2023/04/01 11:41:10;;;;;;;12.52;8.15;;;;;;;9.56;100.00;99517.91;5054059;28;19928;-77
2023/04/01 11:44:14;;;;;;;10.45;7.95;;;;;;;9.66;100.00;99515.84;5021833;28;20063;-77
2023/04/01 11:46:56;;;;;;;13.93;8.90;;;;;;;9.73;100.00;99523.69;5064924;28;20028;-78
2023/04/01 11:49:37;;;;;;;13.88;9.15;;;;;;;9.78;100.00;99523.94;5063924;28;20029;-76
2023/04/01 11:53:01;;;;;;;18.35;11.73;;;;;;;9.64;100.00;99525.56;5065180;28;20048;-77
2023/04/01 11:56:02;;;;;;;45.00;17.90;;;;;;;9.65;100.00;99536.72;5031471;28;20058;-79
2023/04/01 11:58:44;;;;;;;93.28;29.48;;;;;;;9.66;100.00;99538.31;5060767;28;20115;-77
2023/04/01 12:01:47;;;;;;;50.22;18.17;;;;;;;9.70;100.00;99536.97;5058011;28;20388;-81
2023/04/01 12:04:43;;;;;;;58.97;20.92;;;;;;;9.64;100.00;99540.28;5062260;28;20048;-77
2023/04/01 12:07:21;;;;;;;63.55;24.90;;;;;;;9.62;100.00;99543.03;5062177;28;20063;-78
2023/04/01 12:10:05;;;;;;;74.90;27.02;;;;;;;9.67;100.00;99550.28;5063838;28;20120;-77
2023/04/01 12:13:17;;;;;;;25.75;13.43;;;;;;;9.60;100.00;99557.94;5043089;28;20072;-77
2023/04/01 12:16:15;;;;;;;90.43;38.45;;;;;;;9.70;100.00;99547.31;5022677;28;20046;-78
2023/04/01 12:18:50;;;;;;;34.80;19.67;;;;;;;9.86;100.00;99560.06;5036542;28;20040;-77
2023/04/01 12:21:27;;;;;;;20.38;13.63;;;;;;;9.81;100.00;99556.41;5062963;28;20032;-79
2023/04/01 12:24:04;;;;;;;18.30;12.77;;;;;;;9.85;100.00;99561.06;5060276;28;20039;-78
2023/04/01 12:26:51;;;;;;;17.50;11.50;;;;;;;9.87;100.00;99566.03;5061951;28;20037;-77
2023/04/01 12:29:35;;;;;;;16.10;11.38;;;;;;;9.80;100.00;99565.97;5060915;28;20566;-76